New Blaine, Arkansas
Current Conditions -  °F | °C
As of 3:53 PM on Saturday 25 Oct 2014 (Local Time) from KRUE Reporting Station
Clear Clear  
Wind Chill: 84°   Ceiling: Unl
Heat Index: 85°   Visibility: 10mi
Dew Point: 64°   Wind: 5mph
Humidity: 51%   Direction: 310°NW
Pressure: 30.03"   Gusts: NA
Location:  35.29°N, 93.42°W
Report Text: KRUE 252053Z AUTO 31004KT 10SM CLR 29/18 A3003 RMK AO2 SLP162 T02890178 56018
Loading
Personal Weather Stations






























Interactive Weather Map
Tropical Storm Tracking
New forecast layout! Learn more

10-Day Weather Forecast

Advertisements
Track Severe Weather on mobile